Time;durP1;ratioP1;P1;durP2;ratioP2;P2;SDS_P1;SDS_P2;PMS_P1;PMS_P2;Temp;Humidity;BMP_temperature;BMP_pressure;BME280_temperature;BME280_humidity;BME280_pressure;Samples;Min_cycle;Max_cycle;Signal;HPM_P1;HPM_P2
2021/12/25 00:00:12;;;;;;;8.10;3.10;;;-2.10;99.90;;;;;;5039313;28;20423;-72
2021/12/25 00:02:37;;;;;;;4.10;1.42;;;-2.10;99.90;;;;;;5056731;28;20024;-74
2021/12/25 00:05:04;;;;;;;4.03;1.50;;;-2.20;99.90;;;;;;5040407;28;20047;-73
2021/12/25 00:07:30;;;;;;;2.28;1.23;;;-2.10;99.90;;;;;;5039913;28;20043;-72
2021/12/25 00:09:57;;;;;;;3.20;1.20;;;-2.00;99.90;;;;;;5038405;28;20505;-73
2021/12/25 00:12:24;;;;;;;2.22;0.98;;;-2.00;99.90;;;;;;5039332;28;20045;-73
2021/12/25 00:14:50;;;;;;;2.75;1.15;;;-2.00;99.90;;;;;;5036296;28;20030;-73
2021/12/25 00:17:16;;;;;;;4.18;1.92;;;-2.20;99.90;;;;;;5035281;28;20087;-73
2021/12/25 00:19:43;;;;;;;4.00;1.40;;;-2.10;99.90;;;;;;5039289;28;20045;-73
2021/12/25 00:22:09;;;;;;;4.60;1.80;;;-2.20;99.90;;;;;;5037238;28;20390;-73
2021/12/25 00:24:35;;;;;;;4.60;2.00;;;-2.30;99.90;;;;;;5037341;28;20021;-74
2021/12/25 00:27:10;;;;;;;3.80;1.92;;;-2.30;99.90;;;;;;5037415;28;20471;-73
2021/12/25 00:34:46;;;;;;;4.25;2.00;;;-2.40;99.90;;;;;;5038000;28;20068;-73
2021/12/25 00:37:12;;;;;;;6.72;2.53;;;-2.40;99.90;;;;;;5039739;28;20064;-73
2021/12/25 00:39:38;;;;;;;8.25;2.42;;;-2.40;99.90;;;;;;5052851;28;20069;-73
2021/12/25 00:42:06;;;;;;;7.10;2.50;;;-2.40;99.90;;;;;;5037898;28;20458;-73
2021/12/25 00:44:33;;;;;;;6.47;3.00;;;-2.50;99.90;;;;;;5034886;28;20108;-73
2021/12/25 00:46:59;;;;;;;8.02;2.35;;;-2.50;99.90;;;;;;5035436;28;20017;-73
2021/12/25 00:49:25;;;;;;;5.75;2.63;;;-2.50;99.90;;;;;;5036970;28;20092;-73
2021/12/25 00:51:51;;;;;;;7.70;2.90;;;-2.50;99.90;;;;;;5035978;28;20029;-73
2021/12/25 00:54:17;;;;;;;7.72;2.03;;;-2.60;99.90;;;;;;5037806;28;20056;-73
2021/12/25 00:56:43;;;;;;;6.10;2.55;;;-2.60;99.90;;;;;;5036939;28;20060;-73
2021/12/25 00:59:09;;;;;;;5.85;2.60;;;-2.70;99.90;;;;;;5038902;28;20474;-73
2021/12/25 01:01:35;;;;;;;7.15;2.72;;;-2.70;99.90;;;;;;5037901;28;20108;-71
2021/12/25 01:04:01;;;;;;;4.28;2.30;;;-2.70;99.90;;;;;;5033713;28;20059;-73
2021/12/25 01:06:26;;;;;;;5.80;3.15;;;-2.70;99.90;;;;;;5038722;28;20021;-72
2021/12/25 01:08:52;;;;;;;8.43;3.00;;;-2.70;99.90;;;;;;5037014;28;20029;-73
2021/12/25 01:11:18;;;;;;;7.32;2.90;;;-2.70;99.90;;;;;;5035906;28;20038;-73
2021/12/25 01:13:53;;;;;;;6.22;2.63;;;-2.70;99.90;;;;;;5037302;28;20091;-73
2021/12/25 01:40:50;;;;;;;6.28;2.50;;;-2.90;99.90;;;;;;5035665;28;20191;-73
2021/12/25 01:48:45;;;;;;;6.22;2.17;;;-3.00;99.90;;;;;;5041163;28;20068;-72
2021/12/25 01:51:12;;;;;;;6.78;2.30;;;-3.00;99.90;;;;;;5038912;28;20060;-73
2021/12/25 01:53:38;;;;;;;6.18;1.80;;;-3.00;99.90;;;;;;5041290;28;20033;-73
2021/12/25 01:56:04;;;;;;;4.55;1.92;;;-3.00;99.90;;;;;;5038292;28;20060;-73
2021/12/25 01:58:31;;;;;;;3.72;2.15;;;-3.00;99.90;;;;;;5038606;28;20108;-72
2021/12/25 02:00:59;;;;;;;4.85;2.30;;;-2.90;99.90;;;;;;5041946;28;20113;-72
2021/12/25 02:03:26;;;;;;;4.50;1.88;;;-3.00;99.90;;;;;;5055000;28;20475;-73
2021/12/25 02:05:53;;;;;;;4.70;1.73;;;-3.10;99.90;;;;;;5039375;28;20107;-73
2021/12/25 02:08:19;;;;;;;5.55;2.67;;;-3.10;99.90;;;;;;5038111;28;20025;-72
2021/12/25 02:10:45;;;;;;;5.82;1.92;;;-3.10;99.90;;;;;;5041645;28;20556;-73
2021/12/25 02:13:12;;;;;;;4.85;1.77;;;-3.10;99.90;;;;;;5039282;28;20033;-70
2021/12/25 02:15:42;;;;;;;5.47;1.67;;;-3.10;99.90;;;;;;5038730;28;20053;-73
2021/12/25 02:18:15;;;;;;;5.97;2.10;;;-3.10;99.90;;;;;;5040145;28;20030;-73
2021/12/25 02:20:51;;;;;;;3.53;1.73;;;-3.20;99.90;;;;;;5040402;28;20076;-73
2021/12/25 02:23:22;;;;;;;6.18;2.08;;;-3.10;99.90;;;;;;5038310;28;20025;-72
2021/12/25 02:25:55;;;;;;;6.00;1.52;;;-3.20;99.90;;;;;;5040292;28;20029;-72
2021/12/25 02:28:22;;;;;;;4.72;1.70;;;-3.20;99.90;;;;;;5040700;28;20091;-73
2021/12/25 02:30:50;;;;;;;6.53;1.63;;;-3.10;99.90;;;;;;5039423;28;20483;-73
2021/12/25 02:33:16;;;;;;;6.18;2.15;;;-3.10;99.90;;;;;;5040386;28;20034;-70
2021/12/25 02:35:43;;;;;;;3.88;1.45;;;-3.20;99.90;;;;;;5043053;28;20030;-72
2021/12/25 02:38:09;;;;;;;5.35;1.90;;;-3.20;99.90;;;;;;5042774;28;20029;-73
2021/12/25 02:40:35;;;;;;;6.82;2.05;;;-3.20;99.90;;;;;;5037824;28;20029;-73
2021/12/25 02:43:01;;;;;;;5.00;2.10;;;-3.20;99.90;;;;;;5039545;28;20075;-73
2021/12/25 02:45:27;;;;;;;3.75;1.90;;;-3.20;99.90;;;;;;5040378;28;20506;-73
2021/12/25 02:47:55;;;;;;;6.15;2.15;;;-3.20;99.90;;;;;;5039219;28;20079;-73
2021/12/25 02:50:27;;;;;;;2.90;1.67;;;-3.20;99.90;;;;;;5040691;28;20490;-73
2021/12/25 02:52:55;;;;;;;3.35;1.67;;;-3.20;99.90;;;;;;5040127;28;20486;-73
2021/12/25 02:55:21;;;;;;;5.82;1.83;;;-3.20;99.90;;;;;;5036964;28;20395;-73
2021/12/25 02:57:51;;;;;;;3.90;2.03;;;-3.20;99.90;;;;;;5038901;28;20063;-73
2021/12/25 03:00:33;;;;;;;5.47;2.00;;;-3.20;99.90;;;;;;5040816;28;20449;-72
2021/12/25 03:03:00;;;;;;;4.43;2.22;;;-3.20;99.90;;;;;;5038960;28;20064;-73
2021/12/25 03:05:26;;;;;;;6.93;2.22;;;-3.30;99.90;;;;;;5052771;28;20030;-73
2021/12/25 03:07:52;;;;;;;6.38;1.80;;;-3.30;99.90;;;;;;5038784;28;20029;-71
2021/12/25 03:10:19;;;;;;;4.15;1.75;;;-3.30;99.90;;;;;;5039507;28;20036;-73
2021/12/25 03:15:41;;;;;;;2.20;1.55;;;-3.30;99.90;;;;;;5038882;28;20040;-72
2021/12/25 03:18:06;;;;;;;5.53;2.00;;;-3.30;99.90;;;;;;5037188;28;20064;-72
2021/12/25 03:20:33;;;;;;;4.25;1.70;;;-3.30;99.90;;;;;;5039164;28;20073;-72
2021/12/25 03:22:59;;;;;;;4.45;2.30;;;-3.30;99.90;;;;;;5039548;28;20024;-73
2021/12/25 03:25:25;;;;;;;5.68;2.50;;;-3.40;99.90;;;;;;5039839;28;20498;-71
2021/12/25 03:27:51;;;;;;;3.60;2.13;;;-3.40;99.90;;;;;;5037581;28;20463;-72
2021/12/25 03:30:20;;;;;;;8.55;3.00;;;-3.40;99.90;;;;;;5035922;28;20021;-72
2021/12/25 03:32:47;;;;;;;5.97;2.10;;;-3.40;99.90;;;;;;5037953;28;20036;-72
2021/12/25 03:35:13;;;;;;;9.93;2.90;;;-3.40;99.90;;;;;;5036185;28;20025;-71
2021/12/25 03:37:39;;;;;;;5.82;2.40;;;-3.40;99.90;;;;;;5038724;28;20029;-73
2021/12/25 03:40:05;;;;;;;8.68;3.00;;;-3.40;99.90;;;;;;5037432;28;20387;-72
2021/12/25 03:42:31;;;;;;;6.85;2.58;;;-3.40;99.90;;;;;;5039647;28;20181;-72
2021/12/25 03:44:57;;;;;;;6.63;2.83;;;-3.40;99.90;;;;;;5036255;28;20026;-71
2021/12/25 03:47:36;;;;;;;8.50;2.50;;;-3.40;99.90;;;;;;5040038;28;20027;-72
2021/12/25 03:58:21;;;;;;;6.35;2.30;;;-3.40;99.90;;;;;;5041454;28;20029;-73
2021/12/25 04:00:48;;;;;;;5.13;2.00;;;-3.50;99.90;;;;;;5039273;28;20060;-72
2021/12/25 04:03:26;;;;;;;6.55;2.38;;;-3.50;99.90;;;;;;5039811;28;20263;-71
2021/12/25 04:05:52;;;;;;;5.90;2.70;;;-3.50;99.90;;;;;;5037952;28;20029;-73
2021/12/25 04:08:22;;;;;;;6.35;2.92;;;-3.50;99.90;;;;;;5036864;28;20052;-72
2021/12/25 04:10:52;;;;;;;7.25;2.85;;;-3.50;99.90;;;;;;5037502;28;20037;-72
2021/12/25 04:13:19;;;;;;;4.95;2.88;;;-3.50;99.90;;;;;;5038173;28;20037;-73
2021/12/25 04:15:46;;;;;;;5.97;2.30;;;-3.50;99.90;;;;;;5036880;28;20490;-73
2021/12/25 04:18:12;;;;;;;6.32;2.30;;;-3.50;99.90;;;;;;5038343;28;20394;-71
2021/12/25 04:20:38;;;;;;;6.65;2.22;;;-3.50;99.90;;;;;;5033038;28;20026;-72
2021/12/25 04:23:17;;;;;;;4.90;2.60;;;-3.50;99.90;;;;;;5037186;28;20025;-71
2021/12/25 04:25:42;;;;;;;3.03;1.90;;;-3.50;99.90;;;;;;5062239;23;20525;-72
2021/12/25 04:28:18;;;;;;;6.68;2.35;;;-3.50;99.90;;;;;;5043098;28;20051;-72
2021/12/25 05:03:48;;;;;;;4.40;1.85;;;-3.70;99.90;;;;;;5022778;28;20083;-72
2021/12/25 05:06:14;;;;;;;6.65;1.92;;;-3.70;99.90;;;;;;5019097;28;20067;-72
2021/12/25 05:08:40;;;;;;;5.22;1.80;;;-3.70;99.90;;;;;;5020643;28;20276;-72
2021/12/25 05:11:06;;;;;;;7.10;1.70;;;-3.70;99.90;;;;;;5023676;28;20179;-72
2021/12/25 05:13:32;;;;;;;4.35;2.05;;;-3.80;99.90;;;;;;5023009;28;20029;-72
2021/12/25 05:16:00;;;;;;;2.83;1.33;;;-3.70;99.90;;;;;;5021664;28;20042;-72
2021/12/25 05:18:25;;;;;;;4.18;1.60;;;-3.80;99.90;;;;;;5021353;28;20040;-72
2021/12/25 05:20:51;;;;;;;3.97;1.60;;;-3.70;99.90;;;;;;5021823;28;20063;-72
2021/12/25 05:23:17;;;;;;;4.18;1.65;;;-3.70;99.90;;;;;;5026849;28;20021;-71
2021/12/25 05:25:42;;;;;;;4.10;1.50;;;-3.70;99.90;;;;;;5027176;28;20044;-72
2021/12/25 05:28:08;;;;;;;2.90;1.48;;;-3.70;99.90;;;;;;5023951;28;20022;-72
2021/12/25 05:30:34;;;;;;;6.10;2.28;;;-3.70;99.90;;;;;;5024795;28;20030;-72
2021/12/25 05:33:00;;;;;;;3.80;1.80;;;-3.60;99.90;;;;;;5027379;28;20041;-72
2021/12/25 05:35:25;;;;;;;5.35;1.65;;;-3.60;99.90;;;;;;5007832;28;20033;-72
2021/12/25 05:37:58;;;;;;;5.00;1.73;;;-3.70;99.90;;;;;;5025039;28;20092;-72
2021/12/25 05:40:24;;;;;;;9.15;1.80;;;-3.70;99.90;;;;;;5028494;28;20033;-72
2021/12/25 05:42:50;;;;;;;4.72;1.80;;;-3.70;99.90;;;;;;5027576;28;20026;-71
2021/12/25 05:45:16;;;;;;;7.07;2.15;;;-3.70;99.90;;;;;;5024389;28;20025;-71
2021/12/25 05:47:42;;;;;;;4.00;1.83;;;-3.70;99.90;;;;;;5025403;28;20091;-72
2021/12/25 05:50:08;;;;;;;3.50;1.33;;;-3.80;99.90;;;;;;5023921;28;20083;-72
2021/12/25 05:52:33;;;;;;;3.33;1.60;;;-3.80;99.90;;;;;;5023352;28;20120;-72
2021/12/25 05:54:59;;;;;;;6.50;1.60;;;-3.80;99.90;;;;;;5023871;28;20112;-72
2021/12/25 05:57:25;;;;;;;2.90;1.55;;;-3.90;99.90;;;;;;5027809;28;20032;-71
2021/12/25 05:59:50;;;;;;;4.75;2.58;;;-3.80;99.90;;;;;;5026261;28;20471;-72
2021/12/25 06:02:16;;;;;;;4.38;1.70;;;-3.90;99.90;;;;;;5021940;28;20026;-71
2021/12/25 06:04:42;;;;;;;6.13;1.80;;;-3.90;99.90;;;;;;5028181;28;20450;-72
2021/12/25 06:07:07;;;;;;;4.63;1.92;;;-3.90;99.90;;;;;;5025402;28;20083;-72
2021/12/25 06:09:33;;;;;;;3.33;1.85;;;-3.90;99.90;;;;;;5025987;28;20101;-72
2021/12/25 06:11:59;;;;;;;2.92;1.50;;;-3.90;99.90;;;;;;5024108;28;20026;-71
2021/12/25 06:14:25;;;;;;;5.40;1.88;;;-4.00;99.90;;;;;;5025764;28;20037;-72
2021/12/25 06:16:50;;;;;;;3.90;1.85;;;-3.90;99.90;;;;;;5025808;28;20026;-72
2021/12/25 06:19:17;;;;;;;6.00;2.15;;;-3.90;99.90;;;;;;5024051;28;20582;-72
2021/12/25 06:21:43;;;;;;;3.92;2.00;;;-3.90;99.90;;;;;;5022699;28;20034;-71
2021/12/25 06:24:09;;;;;;;3.03;1.63;;;-3.90;99.90;;;;;;5025175;28;20037;-72
2021/12/25 06:26:36;;;;;;;3.55;1.80;;;-4.00;99.90;;;;;;5029890;28;20025;-72
2021/12/25 06:29:03;;;;;;;5.68;1.60;;;-4.00;99.90;;;;;;5025005;28;20044;-72
2021/12/25 06:31:28;;;;;;;4.55;1.90;;;-4.00;99.90;;;;;;5023946;28;20026;-72
2021/12/25 06:33:58;;;;;;;3.28;1.88;;;-4.00;99.90;;;;;;5023920;28;20552;-72
2021/12/25 06:36:24;;;;;;;7.65;2.25;;;-4.00;99.90;;;;;;5026169;28;20033;-72
2021/12/25 06:38:50;;;;;;;4.93;2.58;;;-4.00;99.90;;;;;;5028664;28;20029;-72
2021/12/25 06:41:18;;;;;;;5.18;1.83;;;-4.10;99.90;;;;;;5025308;28;20483;-71
2021/12/25 06:43:44;;;;;;;4.40;2.25;;;-4.00;99.90;;;;;;5027642;28;20030;-71
2021/12/25 06:46:10;;;;;;;5.57;2.30;;;-4.10;99.90;;;;;;5025486;28;20030;-72
2021/12/25 06:48:36;;;;;;;5.75;2.30;;;-4.10;99.90;;;;;;5025710;28;20151;-72
2021/12/25 06:51:02;;;;;;;4.95;2.10;;;-4.10;99.90;;;;;;5022892;28;20033;-71
2021/12/25 06:53:28;;;;;;;4.00;2.03;;;-4.10;99.90;;;;;;5024963;28;20037;-72
2021/12/25 06:55:54;;;;;;;5.25;3.05;;;-4.10;99.90;;;;;;5023859;28;20506;-72
2021/12/25 06:58:19;;;;;;;6.05;2.20;;;-4.10;99.90;;;;;;5021207;28;20029;-71
2021/12/25 07:00:45;;;;;;;4.25;2.05;;;-4.10;99.90;;;;;;5026182;28;20382;-71
2021/12/25 07:03:11;;;;;;;7.65;2.58;;;-4.10;99.90;;;;;;5024647;28;20030;-71
2021/12/25 07:05:36;;;;;;;5.85;2.38;;;-4.10;99.90;;;;;;5024885;28;20032;-72
2021/12/25 07:08:03;;;;;;;5.63;2.05;;;-4.10;99.90;;;;;;5022973;28;20755;-71
2021/12/25 07:10:28;;;;;;;5.28;2.35;;;-4.10;99.90;;;;;;5024483;28;20021;-71
2021/12/25 07:12:54;;;;;;;5.68;2.20;;;-4.10;99.90;;;;;;5021368;28;20611;-71
2021/12/25 07:15:20;;;;;;;5.90;2.28;;;-4.10;99.90;;;;;;5024305;28;20032;-72
2021/12/25 07:17:46;;;;;;;4.32;2.28;;;-4.20;99.90;;;;;;5027037;28;20422;-72
2021/12/25 07:20:12;;;;;;;4.20;2.33;;;-4.10;99.90;;;;;;5023267;28;20109;-71
2021/12/25 07:22:38;;;;;;;6.07;1.80;;;-4.10;99.90;;;;;;5023163;28;20116;-72
2021/12/25 07:25:05;;;;;;;6.45;2.58;;;-4.10;99.90;;;;;;5022841;28;20496;-74
2021/12/25 07:27:31;;;;;;;5.85;2.28;;;-4.20;99.90;;;;;;5023014;28;20022;-73
2021/12/25 07:29:57;;;;;;;5.63;2.33;;;-4.20;99.90;;;;;;5022859;28;20279;-71
2021/12/25 07:32:22;;;;;;;6.05;2.22;;;-4.20;99.90;;;;;;5023319;28;20081;-71
2021/12/25 07:34:50;;;;;;;3.65;2.30;;;-4.20;99.90;;;;;;5024736;28;20081;-71
2021/12/25 07:37:17;;;;;;;5.63;2.13;;;-4.20;99.90;;;;;;5025734;28;20033;-72
2021/12/25 07:39:43;;;;;;;6.30;2.05;;;-4.20;99.90;;;;;;5023799;28;20021;-72
2021/12/25 07:42:11;;;;;;;4.32;1.92;;;-4.20;99.90;;;;;;5022795;28;20029;-71
2021/12/25 07:44:36;;;;;;;6.00;2.03;;;-4.30;99.90;;;;;;5023207;28;20057;-71
2021/12/25 07:47:08;;;;;;;4.28;2.35;;;-4.20;99.90;;;;;;5023305;28;20391;-71
2021/12/25 07:49:34;;;;;;;3.95;2.15;;;-4.30;99.90;;;;;;5027888;28;20053;-72
2021/12/25 07:52:00;;;;;;;3.75;2.10;;;-4.30;99.90;;;;;;5020310;28;20040;-71
2021/12/25 07:54:26;;;;;;;6.78;2.20;;;-4.20;99.90;;;;;;5023880;28;20401;-71
2021/12/25 07:56:52;;;;;;;5.07;2.30;;;-4.20;99.90;;;;;;5024307;28;20403;-71
2021/12/25 07:59:17;;;;;;;5.32;2.70;;;-4.20;99.90;;;;;;5023844;28;20040;-72
2021/12/25 08:01:43;;;;;;;5.78;2.50;;;-4.20;99.90;;;;;;5022839;28;20033;-72
2021/12/25 08:04:10;;;;;;;4.85;2.40;;;-4.20;99.90;;;;;;5020293;28;20546;-72
2021/12/25 08:06:36;;;;;;;5.32;2.40;;;-4.20;99.90;;;;;;5022635;28;20025;-71
2021/12/25 08:09:04;;;;;;;5.22;2.50;;;-4.20;99.90;;;;;;5023391;28;20026;-74
2021/12/25 08:11:30;;;;;;;4.93;1.85;;;-4.20;99.90;;;;;;5023486;28;20062;-71
2021/12/25 08:13:56;;;;;;;5.93;2.17;;;-4.20;99.90;;;;;;5023529;28;20034;-72
2021/12/25 08:16:22;;;;;;;5.55;2.53;;;-4.20;99.90;;;;;;5023150;28;20101;-72
2021/12/25 08:18:48;;;;;;;4.47;2.42;;;-4.10;99.90;;;;;;5020708;28;20053;-72
2021/12/25 08:21:14;;;;;;;6.10;2.10;;;-4.10;99.90;;;;;;5021831;28;20606;-71
2021/12/25 08:23:40;;;;;;;3.30;2.10;;;-4.10;99.90;;;;;;5023197;28;20383;-72
2021/12/25 08:26:07;;;;;;;8.55;2.90;;;-4.10;99.90;;;;;;5022903;28;20025;-72
2021/12/25 08:28:32;;;;;;;4.40;2.35;;;-4.10;99.90;;;;;;5023587;28;20387;-71
2021/12/25 08:30:58;;;;;;;4.53;2.30;;;-4.10;99.90;;;;;;5022814;28;20033;-72
2021/12/25 08:33:24;;;;;;;5.13;2.13;;;-4.10;99.90;;;;;;5021620;28;20108;-72
2021/12/25 08:35:50;;;;;;;4.82;2.47;;;-4.00;99.90;;;;;;5021791;28;20033;-72
2021/12/25 08:38:15;;;;;;;4.38;2.65;;;-4.00;99.90;;;;;;5021794;28;20109;-71
2021/12/25 08:40:43;;;;;;;4.72;2.25;;;-4.00;99.90;;;;;;5021281;28;20490;-72
2021/12/25 08:43:09;;;;;;;6.03;2.30;;;-4.00;99.90;;;;;;5021136;28;20132;-72
2021/12/25 08:46:13;;;;;;;4.70;2.25;;;-3.90;99.90;;;;;;5021411;28;20035;-72
2021/12/25 08:48:27;;;;;;;4.55;1.80;;;-3.90;99.90;;;;;;5021014;28;20038;-72
2021/12/25 08:50:56;;;;;;;4.75;1.98;;;-3.80;99.90;;;;;;5021462;28;20034;-71
2021/12/25 08:53:24;;;;;;;4.85;2.20;;;-3.80;99.90;;;;;;5023817;28;20030;-72
2021/12/25 08:55:55;;;;;;;5.22;2.15;;;-3.80;99.90;;;;;;5025846;28;20109;-72
2021/12/25 08:58:21;;;;;;;5.93;2.33;;;-3.80;99.90;;;;;;5023275;28;20079;-73
2021/12/25 09:00:50;;;;;;;4.65;2.13;;;-3.80;99.90;;;;;;5023584;28;20069;-72
2021/12/25 09:03:16;;;;;;;5.22;2.20;;;-3.70;99.90;;;;;;5019456;28;20095;-72
2021/12/25 09:05:42;;;;;;;6.05;2.20;;;-3.70;99.90;;;;;;5024103;28;20030;-72
2021/12/25 09:08:08;;;;;;;4.78;2.17;;;-3.70;99.90;;;;;;5022003;28;20128;-73
2021/12/25 09:10:35;;;;;;;5.75;2.17;;;-3.70;99.90;;;;;;5024077;28;20487;-72
2021/12/25 09:13:01;;;;;;;3.58;1.83;;;-3.60;99.90;;;;;;5021304;28;20394;-72
2021/12/25 09:15:27;;;;;;;4.22;1.73;;;-3.60;99.90;;;;;;5022029;28;20033;-72
2021/12/25 09:17:52;;;;;;;2.65;1.55;;;-3.60;99.90;;;;;;5021937;28;20036;-72
2021/12/25 09:20:21;;;;;;;3.85;2.00;;;-3.50;99.90;;;;;;5018710;28;20080;-72
2021/12/25 09:22:47;;;;;;;3.22;1.88;;;-3.50;99.90;;;;;;5021507;28;20091;-72
2021/12/25 09:25:13;;;;;;;5.32;2.08;;;-3.50;99.90;;;;;;5019990;28;20334;-72
2021/12/25 09:27:39;;;;;;;7.15;2.40;;;-3.50;99.90;;;;;;5021731;28;20029;-72
2021/12/25 09:30:06;;;;;;;5.93;2.20;;;-3.40;99.90;;;;;;5024613;28;20040;-72
2021/12/25 09:32:32;;;;;;;8.32;2.72;;;-3.40;99.90;;;;;;5019144;28;20566;-72
2021/12/25 09:35:00;;;;;;;3.35;1.95;;;-3.40;99.90;;;;;;5021226;28;20056;-72
2021/12/25 09:37:29;;;;;;;6.00;2.45;;;-3.40;99.90;;;;;;5021806;28;20041;-72
2021/12/25 09:39:55;;;;;;;6.78;2.08;;;-3.30;99.90;;;;;;5021542;28;20022;-72
2021/12/25 09:42:24;;;;;;;4.25;2.00;;;-3.30;99.90;;;;;;5022290;28;20475;-72
2021/12/25 09:44:50;;;;;;;7.13;2.40;;;-3.20;99.90;;;;;;5019971;28;20443;-72
2021/12/25 09:47:16;;;;;;;6.60;2.35;;;-3.10;99.90;;;;;;5023709;28;20105;-72
2021/12/25 09:49:41;;;;;;;5.30;2.13;;;-3.10;99.90;;;;;;5019610;28;20268;-72
2021/12/25 09:52:07;;;;;;;6.53;2.10;;;-3.10;99.90;;;;;;5022200;28;20022;-73
2021/12/25 09:54:33;;;;;;;7.75;2.10;;;-3.10;99.90;;;;;;5021287;28;20030;-72
2021/12/25 09:56:59;;;;;;;5.15;2.45;;;-3.10;99.90;;;;;;5023121;28;20033;-72
2021/12/25 09:59:25;;;;;;;4.55;1.77;;;-3.10;99.90;;;;;;5022463;28;20434;-72
2021/12/25 10:01:54;;;;;;;6.18;1.88;;;-3.10;99.90;;;;;;5020898;28;20092;-72
2021/12/25 10:04:34;;;;;;;5.32;2.03;;;-3.10;99.90;;;;;;5018669;28;20108;-72
2021/12/25 10:07:24;;;;;;;4.15;1.98;;;-3.10;99.90;;;;;;5024522;28;20018;-72
2021/12/25 10:10:05;;;;;;;4.22;1.90;;;-3.10;99.90;;;;;;5023982;28;20487;-72
2021/12/25 10:12:40;;;;;;;4.80;1.70;;;-3.00;99.90;;;;;;5023529;28;20079;-74
2021/12/25 10:15:09;;;;;;;4.70;1.98;;;-3.00;99.90;;;;;;5026450;28;20025;-72
2021/12/25 10:17:52;;;;;;;6.03;1.70;;;-3.00;99.90;;;;;;5024048;28;20082;-73
2021/12/25 10:20:29;;;;;;;4.82;1.90;;;-3.00;99.90;;;;;;5023970;28;20411;-72
2021/12/25 10:23:22;;;;;;;5.07;2.33;;;-2.90;99.90;;;;;;5023884;28;20026;-72
2021/12/25 10:25:51;;;;;;;6.45;1.88;;;-2.90;99.90;;;;;;5041401;23;20060;-73
2021/12/25 10:28:26;;;;;;;4.90;1.88;;;-2.80;99.90;;;;;;5028913;28;20038;-72
2021/12/25 10:31:03;;;;;;;6.68;1.83;;;-2.80;99.90;;;;;;5013261;28;20036;-73
2021/12/25 10:33:28;;;;;;;6.88;1.90;;;-2.70;99.90;;;;;;5031741;28;20025;-72
2021/12/25 10:35:58;;;;;;;5.07;1.77;;;-2.70;99.90;;;;;;5030922;28;20036;-72
2021/12/25 10:38:24;;;;;;;7.10;1.70;;;-2.70;99.90;;;;;;5031802;28;20034;-72
2021/12/25 10:41:22;;;;;;;4.10;1.80;;;-2.60;99.90;;;;;;5031587;28;20060;-72
2021/12/25 10:43:53;;;;;;;3.70;1.75;;;-2.50;99.90;;;;;;5030028;28;20040;-72
2021/12/25 10:46:19;;;;;;;4.00;1.77;;;-2.40;99.90;;;;;;5028528;28;20025;-74
2021/12/25 10:48:45;;;;;;;6.40;2.90;;;-2.30;99.90;;;;;;5030577;28;20026;-72
2021/12/25 10:51:28;;;;;;;6.78;1.98;;;-2.30;99.90;;;;;;5029496;28;20072;-73
2021/12/25 10:53:55;;;;;;;4.18;2.28;;;-2.20;99.90;;;;;;5030091;28;20588;-72
2021/12/25 10:56:21;;;;;;;4.40;1.70;;;-2.20;99.90;;;;;;5033400;28;20056;-72
2021/12/25 10:58:47;;;;;;;3.95;2.30;;;-2.30;99.90;;;;;;5030449;28;20056;-72
2021/12/25 11:01:15;;;;;;;5.22;3.00;;;-2.30;99.90;;;;;;5031212;28;20025;-72
2021/12/25 11:03:44;;;;;;;5.10;3.20;;;-2.30;99.90;;;;;;5028008;28;20037;-72
2021/12/25 11:06:13;;;;;;;4.13;2.10;;;-2.20;99.90;;;;;;5029262;28;20022;-72
2021/12/25 11:08:40;;;;;;;4.97;2.70;;;-2.10;99.90;;;;;;5030971;28;20108;-73
2021/12/25 11:11:11;;;;;;;5.90;2.63;;;-2.10;99.90;;;;;;5031087;28;20104;-72
2021/12/25 11:14:00;;;;;;;10.45;2.88;;;-2.10;99.90;;;;;;5030051;28;20516;-72
2021/12/25 11:16:30;;;;;;;10.32;2.50;;;-2.00;99.90;;;;;;5029284;28;20033;-73
2021/12/25 11:19:06;;;;;;;6.70;2.00;;;-1.90;99.90;;;;;;5026030;28;20032;-73
2021/12/25 11:21:37;;;;;;;6.03;2.03;;;-1.90;99.90;;;;;;5031604;28;20030;-73
2021/12/25 11:24:10;;;;;;;8.30;2.33;;;-1.90;99.90;;;;;;5028675;28;20026;-72
2021/12/25 11:26:37;;;;;;;4.32;2.40;;;-1.90;99.90;;;;;;5031126;28;20025;-72
2021/12/25 11:29:05;;;;;;;5.82;1.88;;;-1.90;99.90;;;;;;5031076;28;20033;-73
2021/12/25 11:31:31;;;;;;;5.28;1.70;;;-2.00;99.90;;;;;;5029871;28;20085;-73
2021/12/25 11:33:58;;;;;;;2.85;1.50;;;-1.90;99.90;;;;;;5032016;28;20490;-73
2021/12/25 11:36:24;;;;;;;3.63;1.55;;;-1.90;99.90;;;;;;5030051;28;20049;-73
2021/12/25 11:38:53;;;;;;;5.75;1.55;;;-1.80;99.90;;;;;;5031055;28;20121;-72
2021/12/25 11:41:23;;;;;;;5.68;1.70;;;-1.80;99.90;;;;;;5032887;28;20029;-73
2021/12/25 11:43:51;;;;;;;;;;;-1.80;99.90;;;;;;5032945;28;20032;-72
2021/12/25 11:46:17;;;;;;;3.13;1.60;;;-1.80;99.90;;;;;;5031643;28;19940;-72
2021/12/25 11:48:44;;;;;;;3.35;1.42;;;-1.80;99.90;;;;;;5031563;28;20076;-73
2021/12/25 11:51:27;;;;;;;3.67;1.33;;;-1.80;99.90;;;;;;5029970;28;20037;-74
2021/12/25 11:56:35;;;;;;;3.00;1.48;;;-1.60;99.90;;;;;;5028697;28;20029;-73
2021/12/25 11:59:11;;;;;;;3.67;1.42;;;-1.60;99.90;;;;;;5031163;28;20033;-73
2021/12/25 12:01:48;;;;;;;12.23;1.85;;;-1.60;99.90;;;;;;5029141;28;20041;-73
2021/12/25 12:04:19;;;;;;;8.32;1.60;;;-1.60;99.90;;;;;;5029118;28;20430;-72
2021/12/25 12:06:48;;;;;;;6.93;1.48;;;-1.50;99.90;;;;;;5029442;28;20100;-72
2021/12/25 12:09:15;;;;;;;6.55;1.50;;;-1.60;99.90;;;;;;5024174;28;20083;-73
2021/12/25 12:11:43;;;;;;;4.13;1.58;;;-1.50;99.90;;;;;;5030644;28;20076;-72
2021/12/25 12:14:28;;;;;;;3.78;1.88;;;-1.40;99.90;;;;;;5032002;28;20021;-73
2021/12/25 12:16:55;;;;;;;5.38;1.70;;;-1.40;99.90;;;;;;5029359;28;20109;-73
2021/12/25 12:19:42;;;;;;;4.45;1.48;;;-1.50;99.90;;;;;;5030871;28;20071;-72
2021/12/25 12:25:14;;;;;;;4.82;1.50;;;-1.50;99.90;;;;;;5027719;28;20045;-73
2021/12/25 12:27:48;;;;;;;3.95;1.60;;;-1.50;99.90;;;;;;5028975;28;20041;-73
2021/12/25 12:30:34;;;;;;;7.78;1.70;;;-1.50;99.90;;;;;;5031116;28;20025;-73
2021/12/25 12:33:20;;;;;;;3.85;1.92;;;-1.50;99.90;;;;;;5029183;28;20071;-73
2021/12/25 12:35:47;;;;;;;4.03;1.55;;;-1.50;99.90;;;;;;5015736;28;20046;-73
2021/12/25 12:41:10;;;;;;;5.53;1.90;;;-1.50;99.90;;;;;;5029276;28;20047;-73
2021/12/25 12:44:03;;;;;;;3.60;1.77;;;-1.50;99.90;;;;;;5027039;28;20485;-73
2021/12/25 12:46:50;;;;;;;5.15;1.90;;;-1.50;99.90;;;;;;5029270;28;20021;-73
2021/12/25 12:49:34;;;;;;;5.05;1.60;;;-1.50;99.90;;;;;;5030510;28;20022;-73
2021/12/25 12:52:14;;;;;;;2.40;1.40;;;-1.50;99.90;;;;;;5029047;28;20080;-73
2021/12/25 12:54:49;;;;;;;5.70;1.85;;;-1.40;99.90;;;;;;5025366;28;20057;-73
2021/12/25 12:57:34;;;;;;;4.32;1.63;;;-1.50;99.90;;;;;;5030463;28;20401;-73
2021/12/25 13:00:27;;;;;;;3.67;1.98;;;-1.50;99.90;;;;;;5028459;28;20105;-73
2021/12/25 13:02:57;;;;;;;3.60;1.88;;;-1.40;99.90;;;;;;5024510;28;20168;-73
2021/12/25 13:05:30;;;;;;;3.13;1.73;;;-1.40;99.90;;;;;;5028658;28;20029;-73
2021/12/25 13:07:58;;;;;;;6.13;2.05;;;-1.30;99.90;;;;;;5030215;28;20044;-72
2021/12/25 13:13:10;;;;;;;4.80;2.38;;;-1.40;99.90;;;;;;5027864;28;20037;-73
2021/12/25 13:15:37;;;;;;;6.28;2.60;;;-1.40;99.90;;;;;;5027143;28;20055;-72
2021/12/25 13:18:06;;;;;;;6.25;2.30;;;-1.40;99.90;;;;;;5028059;28;20087;-72
2021/12/25 13:20:48;;;;;;;6.28;2.50;;;-1.40;99.90;;;;;;5029990;28;20390;-72
2021/12/25 13:23:22;;;;;;;10.93;3.85;;;-1.40;99.90;;;;;;5030206;28;20025;-72
2021/12/25 13:26:00;;;;;;;6.80;2.60;;;-1.30;99.90;;;;;;5028334;28;20038;-72
2021/12/25 13:28:29;;;;;;;5.63;2.65;;;-1.20;99.90;;;;;;5027985;28;20469;-72
2021/12/25 13:30:58;;;;;;;8.20;2.75;;;-1.20;99.90;;;;;;5028045;28;20029;-72
2021/12/25 13:33:27;;;;;;;5.50;2.72;;;-1.20;99.90;;;;;;5026293;28;20945;-72
2021/12/25 13:36:17;;;;;;;6.88;2.75;;;-1.20;99.90;;;;;;5024204;28;20037;-72
2021/12/25 13:38:46;;;;;;;6.22;2.25;;;-1.20;99.90;;;;;;5028436;28;20029;-72
2021/12/25 13:41:12;;;;;;;6.93;2.30;;;-1.30;99.90;;;;;;5028186;28;20083;-73
2021/12/25 13:43:38;;;;;;;5.20;2.45;;;-1.30;99.90;;;;;;5032303;28;20505;-72
2021/12/25 13:46:04;;;;;;;5.30;2.30;;;-1.30;99.90;;;;;;5031999;28;20038;-72
2021/12/25 13:48:40;;;;;;;13.90;3.50;;;-1.30;99.90;;;;;;5031050;28;20026;-72
2021/12/25 13:51:06;;;;;;;4.88;2.42;;;-1.40;99.90;;;;;;5031610;28;20143;-72
2021/12/25 13:53:32;;;;;;;6.35;2.53;;;-1.40;99.90;;;;;;5032072;28;20029;-72
2021/12/25 13:56:07;;;;;;;6.45;2.72;;;-1.40;99.90;;;;;;5027921;28;20033;-72
2021/12/25 13:58:33;;;;;;;5.25;2.20;;;-1.30;99.90;;;;;;5031083;28;20025;-73
2021/12/25 14:00:58;;;;;;;5.47;2.60;;;-1.30;99.90;;;;;;5029425;28;20034;-73
2021/12/25 14:03:25;;;;;;;5.60;2.78;;;-1.30;99.90;;;;;;5032131;28;20116;-72
2021/12/25 14:05:54;;;;;;;7.63;2.95;;;-1.30;99.90;;;;;;5031857;28;20026;-73
2021/12/25 14:08:24;;;;;;;5.90;2.40;;;-1.40;99.90;;;;;;5032693;28;20037;-72
2021/12/25 14:10:55;;;;;;;5.35;2.20;;;-1.30;99.90;;;;;;5033756;28;20402;-73
2021/12/25 14:13:21;;;;;;;10.15;2.53;;;-1.40;99.90;;;;;;5033542;28;20049;-73
2021/12/25 14:15:53;;;;;;;4.38;2.30;;;-1.40;99.90;;;;;;5031567;28;20033;-72
2021/12/25 14:18:32;;;;;;;4.53;2.33;;;-1.40;99.90;;;;;;5034521;28;20026;-73
2021/12/25 14:21:22;;;;;;;6.85;2.58;;;-1.40;99.90;;;;;;5034587;28;20356;-73
2021/12/25 14:24:03;;;;;;;5.07;1.90;;;-1.40;99.90;;;;;;5030716;28;20399;-73
2021/12/25 14:26:29;;;;;;;4.25;2.20;;;-1.40;99.90;;;;;;5031643;28;20030;-73